Marlborough, MA (01752)

10:40 AM EDT on August 25, 2016 (GMT -0400)
Rose Pointe | | Change Station

Elev 309 ft 42.35 °N, 71.50 °W | Updated 38 seconds ago

Scattered Clouds
Scattered Clouds
79.5 °F
Feels Like 82 °F
N
7.0
Wind Variable Wind from NNW
Gusts 0.0 mph

Today
High -- | Low -- °F
--% Chance of Precip.
Yesterday
High -- | Low -- °F
Precip. -- in
Pressure 30.10 in
Visibility 10.0 miles
Clouds Scattered Clouds 20000 ft
Heat Index 82 °F
Dew Point 67 °F
Humidity 66%
Rainfall 0.00 in
Snow Depth Not available.
6:04 AM 7:30 PM
Last Quarter, 45% visible
METAR KBED 251356Z 21013G19KT 10SM SCT200 26/17 A3006 RMK AO2 SLP191 T02610167
Pressure 30.10 in
Visibility 10.0 miles
Clouds Scattered Clouds 20000 ft
Heat Index 82 °F
Dew Point 67 °F
Humidity 66%
Rainfall 0.00 in
Snow Depth Not available.
6:04 AM 7:30 PM
Last Quarter, 45% visible
METAR KBED 251356Z 21013G19KT 10SM SCT200 26/17 A3006 RMK AO2 SLP191 T02610167

10-Day Weather Forecast

Almanac

Astronomy

Aug. 25, 2016 Rise Set
Actual Time
Civil Twilight
Nautical Twilight
Astronomical Twilight
Moon
Length of Visible Light
Length of Day
Tomorrow will be .
, % of the Moon is Illuminated

Today's Extremes

State Highs State Lows

Community

WunderPhotos

Upload Photos

1,934,849 photos uploaded!

WunderBlog® & News

Nearby

Air Quality

  Air Quality AQ Index Pollutant
Not available.

Snow Depth

Station Depth Elevation

Earthquake Activity

City Distance Mag. Time & Date
Minimum magnitude displayed is 2.5.

Coastal Water Temperatures

Place Temperature

Stations

Nearby Weather Stations

Station Location Temp. Windchill Dew Point Humidity Wind Precip. Elev Updated Type
                   

Watches & Warnings

There are currently no watches in effect.